sensor_id;sensor_type;location;lat;lon;timestamp;pressure;altitude;pressure_sealevel;temperature;humidity
2711;BME280;20721;47.402;8.550;2024-03-08T00:00:45;95791;;;5.55;62.08
2711;BME280;20721;47.402;8.550;2024-03-08T00:04:46;95782;;;5.55;62.08
2711;BME280;20721;47.402;8.550;2024-03-08T00:06:46;95783;;;5.52;62.19
2711;BME280;20721;47.402;8.550;2024-03-08T00:08:46;95780;;;5.51;62.28
2711;BME280;20721;47.402;8.550;2024-03-08T00:11:46;95779;;;5.50;62.59
2711;BME280;20721;47.402;8.550;2024-03-08T00:13:46;95777;;;5.46;62.66
2711;BME280;20721;47.402;8.550;2024-03-08T00:15:46;95774;;;5.43;62.73
2711;BME280;20721;47.402;8.550;2024-03-08T00:18:46;95774;;;5.42;62.95
2711;BME280;20721;47.402;8.550;2024-03-08T00:20:46;95774;;;5.40;62.74
2711;BME280;20721;47.402;8.550;2024-03-08T00:23:46;95773;;;5.39;63.10
2711;BME280;20721;47.402;8.550;2024-03-08T00:28:46;95771;;;5.40;63.14
2711;BME280;20721;47.402;8.550;2024-03-08T00:30:46;95773;;;5.36;63.16
2711;BME280;20721;47.402;8.550;2024-03-08T00:33:46;95768;;;5.36;63.07
2711;BME280;20721;47.402;8.550;2024-03-08T00:35:46;95768;;;5.34;63.22
2711;BME280;20721;47.402;8.550;2024-03-08T00:37:47;95765;;;5.35;63.08
2711;BME280;20721;47.402;8.550;2024-03-08T00:39:46;95764;;;5.38;63.02
2711;BME280;20721;47.402;8.550;2024-03-08T00:41:46;95759;;;5.38;63.09
2711;BME280;20721;47.402;8.550;2024-03-08T00:43:47;95760;;;5.35;62.93
2711;BME280;20721;47.402;8.550;2024-03-08T00:46:46;95757;;;5.32;62.98
2711;BME280;20721;47.402;8.550;2024-03-08T00:51:46;95745;;;5.30;62.96
2711;BME280;20721;47.402;8.550;2024-03-08T00:53:46;95739;;;5.28;63.00
2711;BME280;20721;47.402;8.550;2024-03-08T00:55:46;95742;;;5.23;63.02
2711;BME280;20721;47.402;8.550;2024-03-08T00:57:46;95743;;;5.18;62.89
2711;BME280;20721;47.402;8.550;2024-03-08T00:59:46;95746;;;5.18;63.05
2711;BME280;20721;47.402;8.550;2024-03-08T01:01:46;95740;;;5.12;63.47
2711;BME280;20721;47.402;8.550;2024-03-08T01:03:46;95741;;;5.13;63.44
2711;BME280;20721;47.402;8.550;2024-03-08T01:05:46;95738;;;5.14;63.29
2711;BME280;20721;47.402;8.550;2024-03-08T01:07:46;95737;;;5.01;63.84
2711;BME280;20721;47.402;8.550;2024-03-08T01:10:46;95737;;;4.95;64.00
2711;BME280;20721;47.402;8.550;2024-03-08T01:12:46;95737;;;4.90;64.04
2711;BME280;20721;47.402;8.550;2024-03-08T01:14:46;95738;;;4.86;64.16
2711;BME280;20721;47.402;8.550;2024-03-08T01:17:46;95733;;;4.84;64.50
2711;BME280;20721;47.402;8.550;2024-03-08T01:19:46;95730;;;4.85;64.50
2711;BME280;20721;47.402;8.550;2024-03-08T01:21:46;95727;;;4.92;64.32
2711;BME280;20721;47.402;8.550;2024-03-08T01:23:46;95722;;;4.93;64.16
2711;BME280;20721;47.402;8.550;2024-03-08T01:25:46;95725;;;4.99;64.08
2711;BME280;20721;47.402;8.550;2024-03-08T01:27:46;95720;;;5.02;64.13
2711;BME280;20721;47.402;8.550;2024-03-08T01:29:46;95717;;;5.07;63.98
2711;BME280;20721;47.402;8.550;2024-03-08T01:31:46;95716;;;5.10;63.73
2711;BME280;20721;47.402;8.550;2024-03-08T01:33:46;95716;;;5.12;63.77
2711;BME280;20721;47.402;8.550;2024-03-08T01:35:46;95714;;;5.17;63.65
2711;BME280;20721;47.402;8.550;2024-03-08T01:37:46;95714;;;5.22;63.43
2711;BME280;20721;47.402;8.550;2024-03-08T01:39:46;95712;;;5.22;63.40
2711;BME280;20721;47.402;8.550;2024-03-08T01:41:46;95709;;;5.14;63.62
2711;BME280;20721;47.402;8.550;2024-03-08T01:43:46;95708;;;5.11;63.88
2711;BME280;20721;47.402;8.550;2024-03-08T01:46:47;95703;;;5.13;63.63
2711;BME280;20721;47.402;8.550;2024-03-08T01:48:46;95701;;;5.13;63.60
2711;BME280;20721;47.402;8.550;2024-03-08T01:52:46;95698;;;5.18;63.50
2711;BME280;20721;47.402;8.550;2024-03-08T01:55:46;95697;;;5.21;63.44
2711;BME280;20721;47.402;8.550;2024-03-08T01:57:46;95693;;;5.24;63.38
2711;BME280;20721;47.402;8.550;2024-03-08T02:00:46;95684;;;5.24;63.33
2711;BME280;20721;47.402;8.550;2024-03-08T02:02:46;95686;;;5.28;63.37
2711;BME280;20721;47.402;8.550;2024-03-08T02:04:46;95683;;;5.28;63.36
2711;BME280;20721;47.402;8.550;2024-03-08T02:06:46;95679;;;5.24;63.57
2711;BME280;20721;47.402;8.550;2024-03-08T02:11:46;95679;;;5.21;63.76
2711;BME280;20721;47.402;8.550;2024-03-08T02:14:46;95675;;;5.22;63.82
2711;BME280;20721;47.402;8.550;2024-03-08T02:16:46;95669;;;5.29;63.70
2711;BME280;20721;47.402;8.550;2024-03-08T02:18:46;95668;;;5.34;63.68
2711;BME280;20721;47.402;8.550;2024-03-08T02:20:47;95659;;;5.39;63.51
2711;BME280;20721;47.402;8.550;2024-03-08T02:22:46;95661;;;5.41;63.44
2711;BME280;20721;47.402;8.550;2024-03-08T02:25:46;95655;;;5.33;63.68
2711;BME280;20721;47.402;8.550;2024-03-08T02:27:46;95661;;;5.33;63.84
2711;BME280;20721;47.402;8.550;2024-03-08T02:29:46;95655;;;5.35;63.92
2711;BME280;20721;47.402;8.550;2024-03-08T02:31:46;95652;;;5.36;63.83
2711;BME280;20721;47.402;8.550;2024-03-08T02:33:47;95652;;;5.40;63.80
2711;BME280;20721;47.402;8.550;2024-03-08T02:35:48;95648;;;5.40;63.61
2711;BME280;20721;47.402;8.550;2024-03-08T02:37:47;95646;;;5.42;63.52
2711;BME280;20721;47.402;8.550;2024-03-08T02:39:46;95646;;;5.32;63.71
2711;BME280;20721;47.402;8.550;2024-03-08T02:41:46;95644;;;5.35;63.75
2711;BME280;20721;47.402;8.550;2024-03-08T02:43:46;95638;;;5.31;63.65
2711;BME280;20721;47.402;8.550;2024-03-08T02:45:46;95635;;;5.33;63.82
2711;BME280;20721;47.402;8.550;2024-03-08T02:47:46;95635;;;5.39;63.49
2711;BME280;20721;47.402;8.550;2024-03-08T02:49:46;95636;;;5.45;63.40
2711;BME280;20721;47.402;8.550;2024-03-08T02:52:46;95630;;;5.44;63.09
2711;BME280;20721;47.402;8.550;2024-03-08T02:54:47;95623;;;5.23;63.71
2711;BME280;20721;47.402;8.550;2024-03-08T02:57:47;95623;;;5.21;63.95
2711;BME280;20721;47.402;8.550;2024-03-08T02:59:46;95622;;;5.18;63.94
2711;BME280;20721;47.402;8.550;2024-03-08T03:01:46;95619;;;5.21;63.90
2711;BME280;20721;47.402;8.550;2024-03-08T03:03:47;95622;;;5.26;63.73
2711;BME280;20721;47.402;8.550;2024-03-08T03:06:46;95616;;;5.31;63.18
2711;BME280;20721;47.402;8.550;2024-03-08T03:08:46;95614;;;5.34;63.26
2711;BME280;20721;47.402;8.550;2024-03-08T03:11:46;95616;;;5.35;63.28
2711;BME280;20721;47.402;8.550;2024-03-08T03:13:48;95620;;;5.39;63.09
2711;BME280;20721;47.402;8.550;2024-03-08T03:15:46;95616;;;5.43;63.02
2711;BME280;20721;47.402;8.550;2024-03-08T03:18:46;95617;;;5.46;62.89
2711;BME280;20721;47.402;8.550;2024-03-08T03:20:46;95617;;;5.42;62.87
2711;BME280;20721;47.402;8.550;2024-03-08T03:22:49;95616;;;5.44;63.00
2711;BME280;20721;47.402;8.550;2024-03-08T03:24:46;95615;;;5.49;62.94
2711;BME280;20721;47.402;8.550;2024-03-08T03:26:48;95615;;;5.53;62.88
2711;BME280;20721;47.402;8.550;2024-03-08T03:28:46;95611;;;5.54;62.84
2711;BME280;20721;47.402;8.550;2024-03-08T03:30:46;95609;;;5.57;62.79
2711;BME280;20721;47.402;8.550;2024-03-08T03:33:47;95608;;;5.61;62.44
2711;BME280;20721;47.402;8.550;2024-03-08T03:35:46;95608;;;5.49;62.75
2711;BME280;20721;47.402;8.550;2024-03-08T03:38:46;95607;;;5.50;62.86
2711;BME280;20721;47.402;8.550;2024-03-08T03:40:48;95606;;;5.54;62.88
2711;BME280;20721;47.402;8.550;2024-03-08T03:42:46;95603;;;5.50;62.89
2711;BME280;20721;47.402;8.550;2024-03-08T03:44:47;95600;;;5.49;62.93
2711;BME280;20721;47.402;8.550;2024-03-08T03:46:46;95602;;;5.40;63.28
2711;BME280;20721;47.402;8.550;2024-03-08T03:49:47;95599;;;5.34;63.42
2711;BME280;20721;47.402;8.550;2024-03-08T03:51:46;95598;;;5.27;63.68
2711;BME280;20721;47.402;8.550;2024-03-08T03:54:46;95596;;;5.29;63.63
2711;BME280;20721;47.402;8.550;2024-03-08T03:56:46;95594;;;5.17;63.98
2711;BME280;20721;47.402;8.550;2024-03-08T03:58:46;95595;;;5.09;64.26
2711;BME280;20721;47.402;8.550;2024-03-08T04:00:46;95596;;;5.01;64.36
2711;BME280;20721;47.402;8.550;2024-03-08T04:02:47;95592;;;5.03;64.34
2711;BME280;20721;47.402;8.550;2024-03-08T04:04:47;95588;;;5.01;64.44
2711;BME280;20721;47.402;8.550;2024-03-08T04:06:46;95584;;;5.03;64.40
2711;BME280;20721;47.402;8.550;2024-03-08T04:08:46;95586;;;5.07;64.38
2711;BME280;20721;47.402;8.550;2024-03-08T04:10:46;95586;;;4.89;64.80
2711;BME280;20721;47.402;8.550;2024-03-08T04:13:46;95584;;;4.89;65.07
2711;BME280;20721;47.402;8.550;2024-03-08T04:16:48;95582;;;4.99;64.79
2711;BME280;20721;47.402;8.550;2024-03-08T04:18:47;95581;;;5.13;64.47
2711;BME280;20721;47.402;8.550;2024-03-08T04:20:46;95581;;;5.14;64.45
2711;BME280;20721;47.402;8.550;2024-03-08T04:22:49;95581;;;5.04;64.47
2711;BME280;20721;47.402;8.550;2024-03-08T04:24:46;95574;;;5.05;64.45
2711;BME280;20721;47.402;8.550;2024-03-08T04:26:46;95580;;;4.95;64.86
2711;BME280;20721;47.402;8.550;2024-03-08T04:28:46;95576;;;4.99;64.71
2711;BME280;20721;47.402;8.550;2024-03-08T04:30:46;95576;;;5.01;64.71
2711;BME280;20721;47.402;8.550;2024-03-08T04:32:47;95576;;;5.05;64.59
2711;BME280;20721;47.402;8.550;2024-03-08T04:34:47;95574;;;5.11;64.33
2711;BME280;20721;47.402;8.550;2024-03-08T04:37:46;95566;;;5.04;64.61
2711;BME280;20721;47.402;8.550;2024-03-08T04:39:46;95573;;;5.17;64.37
2711;BME280;20721;47.402;8.550;2024-03-08T04:41:46;95572;;;5.21;64.03
2711;BME280;20721;47.402;8.550;2024-03-08T04:43:46;95571;;;5.14;64.32
2711;BME280;20721;47.402;8.550;2024-03-08T04:45:46;95566;;;5.25;64.02
2711;BME280;20721;47.402;8.550;2024-03-08T04:47:46;95569;;;5.37;63.59
2711;BME280;20721;47.402;8.550;2024-03-08T04:49:46;95565;;;5.46;63.48
2711;BME280;20721;47.402;8.550;2024-03-08T04:51:46;95559;;;5.57;63.03
2711;BME280;20721;47.402;8.550;2024-03-08T04:53:46;95557;;;5.64;62.77
2711;BME280;20721;47.402;8.550;2024-03-08T04:55:46;95560;;;5.64;62.31
2711;BME280;20721;47.402;8.550;2024-03-08T04:57:47;95564;;;5.50;62.87
2711;BME280;20721;47.402;8.550;2024-03-08T04:59:46;95563;;;5.54;62.99
2711;BME280;20721;47.402;8.550;2024-03-08T05:01:47;95562;;;5.62;62.78
2711;BME280;20721;47.402;8.550;2024-03-08T05:03:49;95565;;;5.68;62.62
2711;BME280;20721;47.402;8.550;2024-03-08T05:05:46;95567;;;5.73;62.58
2711;BME280;20721;47.402;8.550;2024-03-08T05:07:46;95562;;;5.62;62.76
2711;BME280;20721;47.402;8.550;2024-03-08T05:09:51;95561;;;5.63;62.85
2711;BME280;20721;47.402;8.550;2024-03-08T05:11:47;95563;;;5.62;63.10
2711;BME280;20721;47.402;8.550;2024-03-08T05:13:46;95559;;;5.65;62.73
2711;BME280;20721;47.402;8.550;2024-03-08T05:15:48;95560;;;5.69;62.76
2711;BME280;20721;47.402;8.550;2024-03-08T05:18:46;95557;;;5.74;62.54
2711;BME280;20721;47.402;8.550;2024-03-08T05:20:46;95559;;;5.82;62.51
2711;BME280;20721;47.402;8.550;2024-03-08T05:22:46;95557;;;5.82;62.14
2711;BME280;20721;47.402;8.550;2024-03-08T05:25:47;95553;;;5.78;62.42
2711;BME280;20721;47.402;8.550;2024-03-08T05:27:47;95552;;;5.75;62.43
2711;BME280;20721;47.402;8.550;2024-03-08T05:29:46;95553;;;5.74;62.43
2711;BME280;20721;47.402;8.550;2024-03-08T05:31:48;95558;;;5.81;62.45
2711;BME280;20721;47.402;8.550;2024-03-08T05:33:46;95556;;;5.75;62.58
2711;BME280;20721;47.402;8.550;2024-03-08T05:35:46;95558;;;5.70;62.29
2711;BME280;20721;47.402;8.550;2024-03-08T05:37:46;95550;;;5.43;62.71
2711;BME280;20721;47.402;8.550;2024-03-08T05:39:46;95556;;;5.35;63.30
2711;BME280;20721;47.402;8.550;2024-03-08T05:41:46;95551;;;5.38;63.45
2711;BME280;20721;47.402;8.550;2024-03-08T05:43:46;95554;;;5.51;63.30
2711;BME280;20721;47.402;8.550;2024-03-08T05:45:46;95555;;;5.61;62.93
2711;BME280;20721;47.402;8.550;2024-03-08T05:47:47;95555;;;5.68;62.60
2711;BME280;20721;47.402;8.550;2024-03-08T05:49:46;95557;;;5.77;62.49
2711;BME280;20721;47.402;8.550;2024-03-08T05:51:47;95554;;;5.78;62.37
2711;BME280;20721;47.402;8.550;2024-03-08T05:53:46;95556;;;5.79;61.93
2711;BME280;20721;47.402;8.550;2024-03-08T05:55:46;95555;;;5.65;62.35
2711;BME280;20721;47.402;8.550;2024-03-08T05:57:48;95554;;;5.62;62.49
2711;BME280;20721;47.402;8.550;2024-03-08T05:59:48;95553;;;5.66;62.26
2711;BME280;20721;47.402;8.550;2024-03-08T06:01:47;95546;;;5.52;62.42
2711;BME280;20721;47.402;8.550;2024-03-08T06:03:48;95548;;;5.42;62.94
2711;BME280;20721;47.402;8.550;2024-03-08T06:05:48;95551;;;5.36;62.92
2711;BME280;20721;47.402;8.550;2024-03-08T06:07:46;95551;;;5.21;63.50
2711;BME280;20721;47.402;8.550;2024-03-08T06:09:48;95548;;;5.07;63.85
2711;BME280;20721;47.402;8.550;2024-03-08T06:12:46;95546;;;4.95;64.23
2711;BME280;20721;47.402;8.550;2024-03-08T06:14:46;95541;;;4.97;64.08
2711;BME280;20721;47.402;8.550;2024-03-08T06:16:46;95541;;;4.93;64.07
2711;BME280;20721;47.402;8.550;2024-03-08T06:18:47;95541;;;4.63;64.88
2711;BME280;20721;47.402;8.550;2024-03-08T06:20:46;95544;;;4.48;65.36
2711;BME280;20721;47.402;8.550;2024-03-08T06:22:46;95539;;;4.64;65.23
2711;BME280;20721;47.402;8.550;2024-03-08T06:24:47;95540;;;4.70;64.93
2711;BME280;20721;47.402;8.550;2024-03-08T06:26:46;95542;;;4.56;65.23
2711;BME280;20721;47.402;8.550;2024-03-08T06:28:46;95542;;;4.45;65.66
2711;BME280;20721;47.402;8.550;2024-03-08T06:30:46;95544;;;4.51;65.51
2711;BME280;20721;47.402;8.550;2024-03-08T06:33:49;95546;;;4.51;65.67
2711;BME280;20721;47.402;8.550;2024-03-08T06:35:46;95545;;;4.44;65.90
2711;BME280;20721;47.402;8.550;2024-03-08T06:38:48;95544;;;4.34;66.07
2711;BME280;20721;47.402;8.550;2024-03-08T06:40:48;95545;;;4.18;66.90
2711;BME280;20721;47.402;8.550;2024-03-08T06:42:47;95544;;;4.37;66.46
2711;BME280;20721;47.402;8.550;2024-03-08T06:44:49;95543;;;4.52;65.76
2711;BME280;20721;47.402;8.550;2024-03-08T06:46:47;95541;;;4.59;65.44
2711;BME280;20721;47.402;8.550;2024-03-08T06:48:47;95541;;;4.57;65.22
2711;BME280;20721;47.402;8.550;2024-03-08T06:50:47;95545;;;4.33;66.41
2711;BME280;20721;47.402;8.550;2024-03-08T06:53:47;95549;;;4.36;66.08
2711;BME280;20721;47.402;8.550;2024-03-08T06:55:46;95542;;;4.27;66.92
2711;BME280;20721;47.402;8.550;2024-03-08T06:57:46;95540;;;4.44;66.51
2711;BME280;20721;47.402;8.550;2024-03-08T06:59:47;95535;;;4.60;65.90
2711;BME280;20721;47.402;8.550;2024-03-08T07:01:48;95537;;;4.62;65.65
2711;BME280;20721;47.402;8.550;2024-03-08T07:03:47;95533;;;4.59;65.91
2711;BME280;20721;47.402;8.550;2024-03-08T07:05:46;95530;;;4.56;66.03
2711;BME280;20721;47.402;8.550;2024-03-08T07:07:49;95529;;;4.62;65.31
2711;BME280;20721;47.402;8.550;2024-03-08T07:09:46;95528;;;4.51;65.64
2711;BME280;20721;47.402;8.550;2024-03-08T07:11:47;95531;;;4.54;65.89
2711;BME280;20721;47.402;8.550;2024-03-08T07:13:47;95526;;;4.66;65.60
2711;BME280;20721;47.402;8.550;2024-03-08T07:16:47;95522;;;4.62;65.12
2711;BME280;20721;47.402;8.550;2024-03-08T07:18:47;95516;;;4.60;64.98
2711;BME280;20721;47.402;8.550;2024-03-08T07:20:47;95519;;;4.68;64.96
2711;BME280;20721;47.402;8.550;2024-03-08T07:23:54;95520;;;4.77;64.47
2711;BME280;20721;47.402;8.550;2024-03-08T07:25:48;95521;;;4.70;64.58
2711;BME280;20721;47.402;8.550;2024-03-08T07:27:47;95523;;;4.75;64.62
2711;BME280;20721;47.402;8.550;2024-03-08T07:29:47;95520;;;4.73;64.81
2711;BME280;20721;47.402;8.550;2024-03-08T07:31:56;95520;;;4.77;64.46
2711;BME280;20721;47.402;8.550;2024-03-08T07:33:47;95522;;;4.89;64.31
2711;BME280;20721;47.402;8.550;2024-03-08T07:35:47;95522;;;4.92;64.30
2711;BME280;20721;47.402;8.550;2024-03-08T07:37:47;95522;;;5.17;64.05
2711;BME280;20721;47.402;8.550;2024-03-08T07:39:47;95518;;;5.39;63.18
2711;BME280;20721;47.402;8.550;2024-03-08T07:42:47;95524;;;5.46;62.54
2711;BME280;20721;47.402;8.550;2024-03-08T07:44:48;95524;;;5.50;62.32
2711;BME280;20721;47.402;8.550;2024-03-08T07:46:47;95527;;;5.57;62.23
2711;BME280;20721;47.402;8.550;2024-03-08T07:48:48;95531;;;5.48;62.55
2711;BME280;20721;47.402;8.550;2024-03-08T07:50:47;95528;;;5.57;62.18
2711;BME280;20721;47.402;8.550;2024-03-08T07:52:47;95525;;;5.61;61.89
2711;BME280;20721;47.402;8.550;2024-03-08T07:54:47;95519;;;5.66;61.74
2711;BME280;20721;47.402;8.550;2024-03-08T07:56:47;95518;;;5.63;61.61
2711;BME280;20721;47.402;8.550;2024-03-08T07:58:47;95516;;;5.67;61.60
2711;BME280;20721;47.402;8.550;2024-03-08T08:00:47;95514;;;5.64;61.35
2711;BME280;20721;47.402;8.550;2024-03-08T08:02:48;95516;;;5.76;61.49
2711;BME280;20721;47.402;8.550;2024-03-08T08:04:47;95510;;;5.88;61.10
2711;BME280;20721;47.402;8.550;2024-03-08T08:06:47;95515;;;5.91;60.85
2711;BME280;20721;47.402;8.550;2024-03-08T08:08:47;95512;;;5.85;60.80
2711;BME280;20721;47.402;8.550;2024-03-08T08:10:47;95513;;;5.76;61.45
2711;BME280;20721;47.402;8.550;2024-03-08T08:12:47;95514;;;5.84;60.78
2711;BME280;20721;47.402;8.550;2024-03-08T08:14:47;95517;;;5.87;60.42
2711;BME280;20721;47.402;8.550;2024-03-08T08:16:48;95514;;;5.78;60.80
2711;BME280;20721;47.402;8.550;2024-03-08T08:18:47;95507;;;5.78;60.74
2711;BME280;20721;47.402;8.550;2024-03-08T08:20:47;95506;;;5.71;61.05
2711;BME280;20721;47.402;8.550;2024-03-08T08:22:48;95504;;;5.89;60.95
2711;BME280;20721;47.402;8.550;2024-03-08T08:24:47;95501;;;6.04;60.25
2711;BME280;20721;47.402;8.550;2024-03-08T08:26:47;95496;;;6.09;60.37
2711;BME280;20721;47.402;8.550;2024-03-08T08:28:47;95497;;;6.21;60.52
2711;BME280;20721;47.402;8.550;2024-03-08T08:30:48;95499;;;6.24;59.56
2711;BME280;20721;47.402;8.550;2024-03-08T08:32:48;95489;;;6.15;59.54
2711;BME280;20721;47.402;8.550;2024-03-08T08:34:47;95491;;;6.01;59.98
2711;BME280;20721;47.402;8.550;2024-03-08T08:36:47;95495;;;5.90;60.03
2711;BME280;20721;47.402;8.550;2024-03-08T08:39:47;95500;;;5.85;60.99
2711;BME280;20721;47.402;8.550;2024-03-08T08:41:47;95502;;;5.97;60.54
2711;BME280;20721;47.402;8.550;2024-03-08T08:44:48;95504;;;5.96;60.20
2711;BME280;20721;47.402;8.550;2024-03-08T08:46:47;95500;;;6.00;60.01
2711;BME280;20721;47.402;8.550;2024-03-08T08:48:47;95498;;;5.97;59.95
2711;BME280;20721;47.402;8.550;2024-03-08T08:50:47;95492;;;5.96;59.79
2711;BME280;20721;47.402;8.550;2024-03-08T08:52:47;95488;;;5.87;60.32
2711;BME280;20721;47.402;8.550;2024-03-08T08:55:47;95482;;;5.95;60.17
2711;BME280;20721;47.402;8.550;2024-03-08T08:57:48;95480;;;6.01;59.85
2711;BME280;20721;47.402;8.550;2024-03-08T08:59:47;95488;;;6.11;60.00
2711;BME280;20721;47.402;8.550;2024-03-08T09:01:47;95489;;;6.22;59.77
2711;BME280;20721;47.402;8.550;2024-03-08T09:03:47;95493;;;6.05;60.04
2711;BME280;20721;47.402;8.550;2024-03-08T09:05:47;95491;;;6.05;59.80
2711;BME280;20721;47.402;8.550;2024-03-08T09:07:47;95481;;;6.07;59.76
2711;BME280;20721;47.402;8.550;2024-03-08T09:09:47;95476;;;6.51;59.36
2711;BME280;20721;47.402;8.550;2024-03-08T09:11:47;95469;;;6.75;58.23
2711;BME280;20721;47.402;8.550;2024-03-08T09:13:49;95463;;;6.81;58.34
2711;BME280;20721;47.402;8.550;2024-03-08T09:15:47;95457;;;7.03;57.98
2711;BME280;20721;47.402;8.550;2024-03-08T09:17:48;95455;;;7.23;57.15
2711;BME280;20721;47.402;8.550;2024-03-08T09:19:48;95456;;;7.46;56.48
2711;BME280;20721;47.402;8.550;2024-03-08T09:22:47;95448;;;7.49;56.59
2711;BME280;20721;47.402;8.550;2024-03-08T09:24:47;95450;;;7.64;56.27
2711;BME280;20721;47.402;8.550;2024-03-08T09:26:47;95450;;;8.06;55.47
2711;BME280;20721;47.402;8.550;2024-03-08T09:28:47;95447;;;8.05;54.67
2711;BME280;20721;47.402;8.550;2024-03-08T09:31:47;95441;;;7.88;54.76
2711;BME280;20721;47.402;8.550;2024-03-08T09:33:47;95440;;;8.31;54.26
2711;BME280;20721;47.402;8.550;2024-03-08T09:35:48;95441;;;8.29;53.26
2711;BME280;20721;47.402;8.550;2024-03-08T09:37:50;95437;;;7.96;53.67
2711;BME280;20721;47.402;8.550;2024-03-08T09:39:48;95436;;;7.74;54.80
2711;BME280;20721;47.402;8.550;2024-03-08T09:41:48;95435;;;7.87;54.93
2711;BME280;20721;47.402;8.550;2024-03-08T09:43:47;95439;;;8.04;54.49
2711;BME280;20721;47.402;8.550;2024-03-08T09:45:49;95439;;;8.00;54.30
2711;BME280;20721;47.402;8.550;2024-03-08T09:47:48;95442;;;7.97;54.06
2711;BME280;20721;47.402;8.550;2024-03-08T09:49:47;95435;;;8.03;54.08
2711;BME280;20721;47.402;8.550;2024-03-08T09:51:47;95435;;;8.53;53.63
2711;BME280;20721;47.402;8.550;2024-03-08T09:53:47;95432;;;8.72;53.44
2711;BME280;20721;47.402;8.550;2024-03-08T09:55:49;95427;;;8.86;53.05
2711;BME280;20721;47.402;8.550;2024-03-08T09:59:48;95421;;;8.98;51.66
2711;BME280;20721;47.402;8.550;2024-03-08T10:01:47;95423;;;8.92;51.96
2711;BME280;20721;47.402;8.550;2024-03-08T10:03:49;95421;;;9.03;51.74
2711;BME280;20721;47.402;8.550;2024-03-08T10:05:48;95426;;;8.88;51.57
2711;BME280;20721;47.402;8.550;2024-03-08T10:07:47;95424;;;8.80;52.14
2711;BME280;20721;47.402;8.550;2024-03-08T10:09:51;95421;;;9.04;52.24
2711;BME280;20721;47.402;8.550;2024-03-08T10:11:48;95418;;;9.40;51.82
2711;BME280;20721;47.402;8.550;2024-03-08T10:13:47;95419;;;9.14;51.47
2711;BME280;20721;47.402;8.550;2024-03-08T10:16:47;95412;;;9.23;51.88
2711;BME280;20721;47.402;8.550;2024-03-08T10:18:47;95410;;;9.50;50.84
2711;BME280;20721;47.402;8.550;2024-03-08T10:21:01;95403;;;9.75;50.03
2711;BME280;20721;47.402;8.550;2024-03-08T10:23:48;95404;;;9.61;50.00
2711;BME280;20721;47.402;8.550;2024-03-08T10:25:47;95409;;;9.68;50.21
2711;BME280;20721;47.402;8.550;2024-03-08T10:27:47;95411;;;9.68;50.21
2711;BME280;20721;47.402;8.550;2024-03-08T10:29:48;95411;;;9.71;49.89
2711;BME280;20721;47.402;8.550;2024-03-08T10:31:47;95413;;;9.81;50.01
2711;BME280;20721;47.402;8.550;2024-03-08T10:33:47;95406;;;9.73;49.86
2711;BME280;20721;47.402;8.550;2024-03-08T10:35:47;95407;;;9.76;50.26
2711;BME280;20721;47.402;8.550;2024-03-08T10:37:48;95406;;;9.89;49.71
2711;BME280;20721;47.402;8.550;2024-03-08T10:39:51;95406;;;10.14;49.81
2711;BME280;20721;47.402;8.550;2024-03-08T10:41:52;95404;;;10.19;48.72
2711;BME280;20721;47.402;8.550;2024-03-08T10:45:48;95396;;;9.94;49.10
2711;BME280;20721;47.402;8.550;2024-03-08T10:47:48;95392;;;10.00;49.42
2711;BME280;20721;47.402;8.550;2024-03-08T10:48:47;95392;;;10.18;49.32
2711;BME280;20721;47.402;8.550;2024-03-08T10:50:50;95389;;;10.10;47.98
2711;BME280;20721;47.402;8.550;2024-03-08T10:52:49;95386;;;10.17;48.40
2711;BME280;20721;47.402;8.550;2024-03-08T10:54:47;95382;;;10.33;48.72
2711;BME280;20721;47.402;8.550;2024-03-08T10:56:47;95380;;;10.58;47.95
2711;BME280;20721;47.402;8.550;2024-03-08T10:58:47;95380;;;10.94;47.34
2711;BME280;20721;47.402;8.550;2024-03-08T11:00:50;95375;;;11.15;47.53
2711;BME280;20721;47.402;8.550;2024-03-08T11:02:47;95379;;;11.37;47.29
2711;BME280;20721;47.402;8.550;2024-03-08T11:04:49;95372;;;11.75;45.77
2711;BME280;20721;47.402;8.550;2024-03-08T11:06:47;95374;;;11.94;46.29
2711;BME280;20721;47.402;8.550;2024-03-08T11:08:50;95375;;;11.66;45.31
2711;BME280;20721;47.402;8.550;2024-03-08T11:10:52;95371;;;11.31;45.21
2711;BME280;20721;47.402;8.550;2024-03-08T11:12:48;95369;;;11.31;46.17
2711;BME280;20721;47.402;8.550;2024-03-08T11:14:49;95366;;;11.34;46.25
2711;BME280;20721;47.402;8.550;2024-03-08T11:16:47;95363;;;11.53;45.45
2711;BME280;20721;47.402;8.550;2024-03-08T11:18:47;95358;;;11.34;45.68
2711;BME280;20721;47.402;8.550;2024-03-08T11:20:49;95355;;;11.35;45.85
2711;BME280;20721;47.402;8.550;2024-03-08T11:24:07;95348;;;11.14;46.46
2711;BME280;20721;47.402;8.550;2024-03-08T11:25:52;95353;;;11.34;46.27
2711;BME280;20721;47.402;8.550;2024-03-08T11:27:53;95343;;;11.43;46.14
2711;BME280;20721;47.402;8.550;2024-03-08T11:29:58;95347;;;11.50;45.70
2711;BME280;20721;47.402;8.550;2024-03-08T11:31:47;95348;;;11.35;46.32
2711;BME280;20721;47.402;8.550;2024-03-08T11:33:49;95341;;;11.55;46.99
2711;BME280;20721;47.402;8.550;2024-03-08T11:35:47;95336;;;11.84;46.04
2711;BME280;20721;47.402;8.550;2024-03-08T11:37:48;95330;;;12.00;45.41
2711;BME280;20721;47.402;8.550;2024-03-08T11:39:50;95327;;;12.05;44.97
2711;BME280;20721;47.402;8.550;2024-03-08T11:41:48;95323;;;11.97;44.83
2711;BME280;20721;47.402;8.550;2024-03-08T11:44:47;95326;;;12.04;45.65
2711;BME280;20721;47.402;8.550;2024-03-08T11:46:48;95329;;;12.02;45.22
2711;BME280;20721;47.402;8.550;2024-03-08T11:48:47;95335;;;11.93;45.26
2711;BME280;20721;47.402;8.550;2024-03-08T11:50:58;95334;;;12.05;45.81
2711;BME280;20721;47.402;8.550;2024-03-08T11:53:49;95321;;;12.19;45.19
2711;BME280;20721;47.402;8.550;2024-03-08T11:55:49;95313;;;12.15;44.75
2711;BME280;20721;47.402;8.550;2024-03-08T11:57:48;95313;;;12.24;44.97
2711;BME280;20721;47.402;8.550;2024-03-08T11:59:50;95310;;;12.32;44.45
2711;BME280;20721;47.402;8.550;2024-03-08T12:01:57;95310;;;12.14;44.57
2711;BME280;20721;47.402;8.550;2024-03-08T12:03:52;95308;;;11.76;45.34
2711;BME280;20721;47.402;8.550;2024-03-08T12:05:52;95300;;;11.71;45.86
2711;BME280;20721;47.402;8.550;2024-03-08T12:07:55;95298;;;11.54;45.94
2711;BME280;20721;47.402;8.550;2024-03-08T12:10:47;95299;;;11.29;46.74
2711;BME280;20721;47.402;8.550;2024-03-08T12:12:48;95298;;;11.44;46.78
2711;BME280;20721;47.402;8.550;2024-03-08T12:14:47;95297;;;11.48;46.95
2711;BME280;20721;47.402;8.550;2024-03-08T12:16:48;95290;;;11.41;46.18
2711;BME280;20721;47.402;8.550;2024-03-08T12:18:48;95290;;;11.30;46.22